Time;durP1;ratioP1;P1;durP2;ratioP2;P2;SDS_P1;SDS_P2;PMS_P1;PMS_P2;Temp;Humidity;BMP_temperature;BMP_pressure;BME280_temperature;BME280_humidity;BME280_pressure;Samples;Min_cycle;Max_cycle;Signal;HPM_P1;HPM_P2
2023/03/26 00:01:12;;;;;;;9.80;1.67;;;;;;;;;;4990746;28;20531;-74
2023/03/26 00:03:39;;;;;;;8.10;1.75;;;;;;;;;;4990613;28;20041;-74
2023/03/26 00:06:09;;;;;;;6.15;1.70;;;;;;;;;;4990649;28;20022;-74
2023/03/26 00:08:36;;;;;;;6.53;1.55;;;;;;;;;;4990600;28;20033;-75
2023/03/26 00:11:03;;;;;;;4.57;1.60;;;;;;;;;;4989453;28;20114;-75
2023/03/26 00:13:29;;;;;;;6.88;1.92;;;;;;;;;;4991158;28;20521;-75
2023/03/26 00:15:55;;;;;;;7.68;1.83;;;;;;;;;;4994664;28;20019;-74
2023/03/26 00:18:23;;;;;;;6.68;1.70;;;;;;;;;;4994648;28;20023;-74
2023/03/26 00:20:50;;;;;;;6.95;1.70;;;;;;;;;;4994486;28;20034;-73
2023/03/26 00:23:16;;;;;;;8.40;1.70;;;;;;;;;;4994372;28;20118;-75
2023/03/26 00:25:42;;;;;;;7.55;1.88;;;;;;;;;;4994347;28;20101;-73
2023/03/26 00:28:08;;;;;;;5.20;1.80;;;;;;;;;;4994246;28;20437;-75
2023/03/26 00:30:40;;;;;;;7.13;1.92;;;;;;;;;;4994300;28;20065;-75
2023/03/26 00:33:06;;;;;;;7.32;1.90;;;;;;;;;;4994136;28;20026;-74
2023/03/26 00:35:35;;;;;;;5.13;1.60;;;;;;;;;;5009192;28;20027;-74
2023/03/26 00:38:00;;;;;;;6.72;1.55;;;;;;;;;;4994037;28;20022;-75
2023/03/26 00:40:25;;;;;;;9.55;1.75;;;;;;;;;;4994080;28;20023;-75
2023/03/26 00:42:51;;;;;;;5.63;1.58;;;;;;;;;;4993915;28;20089;-74
2023/03/26 00:45:20;;;;;;;9.68;1.85;;;;;;;;;;4993788;28;20634;-74
2023/03/26 00:47:45;;;;;;;9.05;1.80;;;;;;;;;;4992973;28;20084;-74
2023/03/26 00:50:14;;;;;;;7.93;1.63;;;;;;;;;;4993918;28;20502;-75
2023/03/26 00:52:41;;;;;;;8.43;2.00;;;;;;;;;;4993870;28;20038;-75
2023/03/26 00:55:08;;;;;;;8.38;1.65;;;;;;;;;;4993864;28;20019;-75
2023/03/26 00:57:33;;;;;;;7.85;1.70;;;;;;;;;;4993660;28;20520;-74
2023/03/26 00:59:58;;;;;;;5.85;1.65;;;;;;;;;;4993689;28;20026;-74
2023/03/26 01:02:26;;;;;;;5.38;1.38;;;;;;;;;;4993625;28;20109;-74
2023/03/26 01:04:56;;;;;;;4.85;1.73;;;;;;;;;;4994042;28;20049;-75
2023/03/26 01:07:27;;;;;;;6.45;1.50;;;;;;;;;;4993623;28;20019;-74
2023/03/26 01:09:54;;;;;;;9.60;2.00;;;;;;;;;;4993890;28;20370;-75
2023/03/26 01:12:23;;;;;;;10.52;1.83;;;;;;;;;;4993813;28;20036;-74
2023/03/26 01:14:50;;;;;;;9.43;1.55;;;;;;;;;;4993021;28;20407;-75
2023/03/26 01:17:16;;;;;;;11.82;1.98;;;;;;;;;;4993289;28;20030;-75
2023/03/26 01:20:12;;;;;;;11.00;1.77;;;;;;;;;;5008465;28;20393;-74
2023/03/26 01:22:41;;;;;;;8.82;1.80;;;;;;;;;;4993222;28;20034;-74
2023/03/26 01:25:08;;;;;;;5.50;1.40;;;;;;;;;;4992951;28;20033;-74
2023/03/26 01:27:37;;;;;;;7.68;1.60;;;;;;;;;;4991994;28;20037;-75
2023/03/26 01:30:27;;;;;;;7.13;1.60;;;;;;;;;;4993232;28;20097;-75
2023/03/26 01:33:12;;;;;;;7.30;1.58;;;;;;;;;;4993062;28;20433;-75
2023/03/26 01:36:16;;;;;;;5.97;1.40;;;;;;;;;;4993086;28;20031;-74
2023/03/26 01:39:01;;;;;;;8.20;1.38;;;;;;;;;;4981106;28;20042;-74
2023/03/26 01:41:38;;;;;;;9.60;1.70;;;;;;;;;;4992945;28;20030;-75
2023/03/26 01:44:15;;;;;;;8.02;1.52;;;;;;;;;;4992898;28;20030;-75
2023/03/26 01:46:42;;;;;;;5.72;1.50;;;;;;;;;;4993063;28;20023;-75
2023/03/26 01:49:12;;;;;;;7.25;1.50;;;;;;;;;;4992998;28;20029;-74
2023/03/26 01:51:40;;;;;;;7.07;1.60;;;;;;;;;;4992486;28;20029;-75
2023/03/26 01:54:11;;;;;;;5.78;1.40;;;;;;;;;;4992699;28;20080;-74
2023/03/26 01:56:55;;;;;;;7.07;1.70;;;;;;;;;;4992774;28;20130;-74
2023/03/26 01:59:46;;;;;;;7.40;1.58;;;;;;;;;;4992814;28;20026;-74
2023/03/26 02:02:28;;;;;;;7.03;1.90;;;;;;;;;;4991358;28;20041;-74
2023/03/26 02:05:01;;;;;;;6.85;1.60;;;;;;;;;;4992501;28;20034;-74
2023/03/26 02:07:43;;;;;;;4.30;1.40;;;;;;;;;;4991104;28;20038;-75
2023/03/26 02:10:18;;;;;;;8.80;1.75;;;;;;;;;;4992389;28;20053;-75
2023/03/26 02:12:43;;;;;;;7.38;2.00;;;;;;;;;;4992491;28;20085;-75
2023/03/26 02:15:10;;;;;;;7.95;1.80;;;;;;;;;;4992116;28;20046;-75
2023/03/26 02:17:39;;;;;;;7.40;1.90;;;;;;;;;;4992447;28;20672;-75
2023/03/26 02:20:08;;;;;;;7.25;1.85;;;;;;;;;;4992387;28;20536;-75
2023/03/26 02:22:39;;;;;;;6.10;1.83;;;;;;;;;;4992111;28;20033;-75
2023/03/26 02:25:09;;;;;;;7.82;1.90;;;;;;;;;;4990640;28;20081;-75
2023/03/26 02:27:35;;;;;;;6.55;1.67;;;;;;;;;;4992184;28;20644;-74
2023/03/26 02:30:03;;;;;;;6.00;1.80;;;;;;;;;;4990756;28;20026;-75
2023/03/26 02:32:29;;;;;;;5.90;1.85;;;;;;;;;;4992123;28;20026;-75
2023/03/26 02:34:54;;;;;;;6.68;1.80;;;;;;;;;;4991959;28;20390;-74
2023/03/26 02:37:19;;;;;;;8.38;1.90;;;;;;;;;;4991150;28;20022;-74
2023/03/26 02:39:45;;;;;;;6.63;1.80;;;;;;;;;;4991868;28;20072;-74
2023/03/26 02:42:10;;;;;;;7.65;1.70;;;;;;;;;;4991918;28;20482;-75
2023/03/26 02:44:38;;;;;;;7.97;1.85;;;;;;;;;;4991491;28;20030;-74
2023/03/26 02:47:04;;;;;;;5.38;1.40;;;;;;;;;;4991748;28;20105;-75
2023/03/26 02:49:30;;;;;;;7.22;1.88;;;;;;;;;;4991774;28;20105;-75
2023/03/26 02:51:55;;;;;;;7.35;1.77;;;;;;;;;;4990343;28;20385;-74
2023/03/26 02:54:21;;;;;;;6.45;1.80;;;;;;;;;;4990391;28;20078;-74
2023/03/26 02:56:47;;;;;;;3.80;1.50;;;;;;;;;;4991605;28;20033;-75
2023/03/26 02:59:13;;;;;;;5.50;1.77;;;;;;;;;;4991721;28;20022;-74
2023/03/26 03:01:41;;;;;;;5.80;1.60;;;;;;;;;;4991399;28;20030;-75
2023/03/26 03:04:11;;;;;;;6.80;1.70;;;;;;;;;;4991324;28;20106;-74
2023/03/26 03:06:37;;;;;;;6.15;1.50;;;;;;;;;;4991485;28;20173;-75
2023/03/26 03:09:09;;;;;;;6.50;1.75;;;;;;;;;;5006429;28;20125;-74
2023/03/26 03:11:36;;;;;;;5.15;1.30;;;;;;;;;;4991616;28;20034;-74
2023/03/26 03:14:02;;;;;;;6.75;1.55;;;;;;;;;;4991281;28;20054;-75
2023/03/26 03:16:28;;;;;;;8.07;1.40;;;;;;;;;;4991266;28;20110;-75
2023/03/26 03:18:55;;;;;;;7.63;1.63;;;;;;;;;;4989866;28;20030;-75
2023/03/26 03:21:24;;;;;;;7.78;1.55;;;;;;;;;;4990783;28;20053;-74
2023/03/26 03:23:50;;;;;;;8.15;1.50;;;;;;;;;;4989911;28;20030;-74
2023/03/26 03:26:21;;;;;;;5.95;1.35;;;;;;;;;;4991049;28;20077;-74
2023/03/26 03:28:47;;;;;;;5.32;1.25;;;;;;;;;;4973735;28;20077;-75
2023/03/26 03:31:15;;;;;;;8.05;1.40;;;;;;;;;;4991283;28;20055;-75
2023/03/26 03:33:41;;;;;;;7.15;1.50;;;;;;;;;;4990987;28;20022;-74
2023/03/26 03:36:09;;;;;;;6.35;1.40;;;;;;;;;;4990686;28;20442;-75
2023/03/26 03:38:36;;;;;;;6.70;1.50;;;;;;;;;;4990914;28;20097;-75
2023/03/26 03:41:02;;;;;;;6.80;1.52;;;;;;;;;;4990891;28;20031;-74
2023/03/26 03:43:27;;;;;;;9.90;1.63;;;;;;;;;;5006050;28;20149;-74
2023/03/26 03:45:53;;;;;;;8.50;1.50;;;;;;;;;;4990714;28;20530;-74
2023/03/26 03:48:18;;;;;;;7.43;1.52;;;;;;;;;;4990914;28;20022;-74
2023/03/26 03:50:44;;;;;;;8.63;1.60;;;;;;;;;;5005887;28;20470;-75
2023/03/26 03:53:09;;;;;;;4.82;1.33;;;;;;;;;;4990924;28;20022;-74
2023/03/26 03:55:37;;;;;;;6.30;1.60;;;;;;;;;;4990721;28;20085;-74
2023/03/26 03:58:02;;;;;;;8.65;1.63;;;;;;;;;;4989629;28;20081;-74
2023/03/26 04:00:29;;;;;;;9.50;1.70;;;;;;;;;;4990817;28;20022;-74
2023/03/26 04:02:55;;;;;;;6.43;1.67;;;;;;;;;;4990895;28;20022;-74
2023/03/26 04:05:20;;;;;;;9.70;1.67;;;;;;;;;;4990690;28;20097;-75
2023/03/26 04:07:46;;;;;;;4.32;1.30;;;;;;;;;;4990656;28;20722;-74
2023/03/26 04:10:14;;;;;;;7.20;1.73;;;;;;;;;;4990745;28;20029;-74
2023/03/26 04:12:39;;;;;;;7.55;1.40;;;;;;;;;;4990651;28;20073;-74
2023/03/26 04:15:05;;;;;;;7.40;1.42;;;;;;;;;;4990192;28;20074;-74
2023/03/26 04:17:30;;;;;;;5.22;1.58;;;;;;;;;;5005579;28;20031;-74
2023/03/26 04:19:56;;;;;;;9.98;1.42;;;;;;;;;;4990484;28;20033;-74
2023/03/26 04:22:23;;;;;;;6.55;1.50;;;;;;;;;;4990429;28;20034;-74
2023/03/26 04:24:49;;;;;;;5.75;1.50;;;;;;;;;;4989120;28;20058;-74
2023/03/26 04:27:19;;;;;;;6.43;1.50;;;;;;;;;;4989285;28;20050;-74
2023/03/26 04:29:48;;;;;;;6.77;1.30;;;;;;;;;;4990530;28;20039;-74
2023/03/26 04:32:28;;;;;;;7.53;1.40;;;;;;;;;;4990519;28;20034;-74
2023/03/26 04:34:58;;;;;;;6.38;1.38;;;;;;;;;;4990420;28;20030;-74
2023/03/26 04:37:31;;;;;;;5.43;1.38;;;;;;;;;;4989142;28;20489;-74
2023/03/26 04:39:56;;;;;;;6.95;1.48;;;;;;;;;;4990630;28;20530;-74
2023/03/26 04:42:22;;;;;;;7.68;1.50;;;;;;;;;;4990432;28;20138;-74
2023/03/26 04:44:49;;;;;;;5.80;1.23;;;;;;;;;;4990429;28;20026;-74
2023/03/26 04:47:16;;;;;;;4.07;1.45;;;;;;;;;;4990203;28;20034;-74
2023/03/26 04:49:43;;;;;;;6.72;1.42;;;;;;;;;;4990548;28;20034;-74
2023/03/26 04:52:10;;;;;;;6.05;1.50;;;;;;;;;;4990282;28;20547;-74
2023/03/26 04:54:36;;;;;;;5.15;1.33;;;;;;;;;;4990482;28;20109;-74
2023/03/26 04:57:05;;;;;;;8.65;1.50;;;;;;;;;;4990182;28;20587;-74
2023/03/26 04:59:33;;;;;;;8.15;1.50;;;;;;;;;;4991367;28;20108;-74
2023/03/26 05:02:00;;;;;;;6.32;1.45;;;;;;;;;;4992638;28;20400;-74
2023/03/26 05:04:32;;;;;;;4.70;1.27;;;;;;;;;;5008782;28;20026;-74
2023/03/26 05:06:58;;;;;;;8.15;1.45;;;;;;;;;;4993314;28;20029;-74
2023/03/26 05:09:24;;;;;;;6.28;1.15;;;;;;;;;;4993591;28;20030;-74
2023/03/26 05:11:50;;;;;;;7.47;1.40;;;;;;;;;;4992441;28;20582;-74
2023/03/26 05:14:16;;;;;;;4.82;1.20;;;;;;;;;;4993553;28;20514;-74
2023/03/26 05:16:43;;;;;;;5.50;1.25;;;;;;;;;;4993392;28;20403;-75
2023/03/26 05:19:09;;;;;;;6.88;1.25;;;;;;;;;;4992122;28;20052;-74
2023/03/26 05:21:35;;;;;;;5.47;1.10;;;;;;;;;;4993123;28;20548;-74
2023/03/26 05:24:00;;;;;;;4.68;1.00;;;;;;;;;;4993338;28;20399;-73
2023/03/26 05:26:28;;;;;;;9.00;1.55;;;;;;;;;;4993184;28;20130;-74
2023/03/26 05:28:53;;;;;;;7.25;1.10;;;;;;;;;;4993291;28;20109;-74
2023/03/26 05:31:22;;;;;;;5.97;1.25;;;;;;;;;;4993443;28;20105;-74
2023/03/26 05:33:48;;;;;;;6.68;1.00;;;;;;;;;;4991931;28;20394;-74
2023/03/26 05:36:15;;;;;;;4.53;1.10;;;;;;;;;;4993049;28;20486;-74
2023/03/26 05:38:46;;;;;;;5.15;1.20;;;;;;;;;;4993043;28;20126;-74
2023/03/26 05:41:12;;;;;;;6.53;1.40;;;;;;;;;;4992853;28;20027;-74
2023/03/26 05:43:37;;;;;;;4.05;1.00;;;;;;;;;;4993093;28;20031;-74
2023/03/26 05:46:03;;;;;;;5.22;0.95;;;;;;;;;;4992803;28;20018;-74
2023/03/26 05:48:28;;;;;;;6.18;1.20;;;;;;;;;;4993035;28;20042;-74
2023/03/26 05:50:55;;;;;;;4.45;1.00;;;;;;;;;;4991603;28;20030;-74
2023/03/26 05:53:22;;;;;;;4.88;0.90;;;;;;;;;;4992838;28;20045;-74
2023/03/26 05:55:56;;;;;;;4.90;1.00;;;;;;;;;;5007734;28;20525;-74
2023/03/26 05:58:23;;;;;;;6.47;1.20;;;;;;;;;;4992908;28;20489;-74
2023/03/26 06:01:04;;;;;;;6.15;1.10;;;;;;;;;;4992607;28;20029;-74
2023/03/26 06:03:30;;;;;;;6.38;1.20;;;;;;;;;;4992838;28;20622;-74
2023/03/26 06:05:56;;;;;;;9.02;1.02;;;;;;;;;;4991145;28;20176;-74
2023/03/26 06:08:22;;;;;;;6.20;1.30;;;;;;;;;;4992619;28;20113;-74
2023/03/26 06:10:49;;;;;;;7.78;1.25;;;;;;;;;;4991619;28;20437;-74
2023/03/26 06:13:15;;;;;;;7.15;1.00;;;;;;;;;;4992236;28;20054;-74
2023/03/26 06:15:41;;;;;;;9.65;1.20;;;;;;;;;;4992247;28;20050;-75
2023/03/26 06:18:06;;;;;;;6.43;1.02;;;;;;;;;;4992161;28;20112;-74
2023/03/26 06:20:32;;;;;;;8.27;1.50;;;;;;;;;;4992186;28;20071;-74
2023/03/26 06:22:57;;;;;;;6.07;1.27;;;;;;;;;;4992078;28;20168;-74
2023/03/26 06:25:22;;;;;;;10.07;1.20;;;;;;;;;;4992352;28;20026;-74
2023/03/26 06:27:48;;;;;;;5.68;1.20;;;;;;;;;;5007090;28;20105;-74
2023/03/26 06:30:14;;;;;;;8.05;0.98;;;;;;;;;;4992110;28;20030;-74
2023/03/26 06:32:39;;;;;;;5.55;1.15;;;;;;;;;;4992474;28;20129;-74
2023/03/26 06:35:05;;;;;;;10.32;1.20;;;;;;;;;;4990718;28;20450;-74
2023/03/26 06:37:30;;;;;;;8.05;1.17;;;;;;;;;;4991750;28;20023;-74
2023/03/26 06:39:56;;;;;;;5.32;1.10;;;;;;;;;;4992120;28;20026;-74
2023/03/26 06:42:21;;;;;;;5.63;1.30;;;;;;;;;;4991820;28;20030;-74
2023/03/26 06:44:47;;;;;;;6.32;1.10;;;;;;;;;;4990561;28;20414;-74
2023/03/26 06:47:12;;;;;;;4.70;1.10;;;;;;;;;;4991734;28;20033;-74
2023/03/26 06:49:38;;;;;;;4.60;0.95;;;;;;;;;;4991597;28;20026;-74
2023/03/26 06:52:04;;;;;;;6.28;1.30;;;;;;;;;;4991532;28;20121;-74
2023/03/26 06:54:29;;;;;;;5.43;1.00;;;;;;;;;;4991604;28;20069;-74
2023/03/26 06:56:55;;;;;;;5.05;1.00;;;;;;;;;;4991398;28;20117;-74
2023/03/26 06:59:20;;;;;;;3.75;0.90;;;;;;;;;;5006667;28;20030;-74
2023/03/26 07:01:46;;;;;;;4.82;0.98;;;;;;;;;;4991672;28;20018;-74
2023/03/26 07:04:11;;;;;;;6.68;1.00;;;;;;;;;;4991591;28;20038;-73
2023/03/26 07:06:37;;;;;;;5.85;1.00;;;;;;;;;;5006296;28;20113;-74
2023/03/26 07:09:02;;;;;;;4.38;0.95;;;;;;;;;;4991219;28;20135;-74
2023/03/26 07:11:28;;;;;;;3.67;0.80;;;;;;;;;;4991414;28;20397;-75
2023/03/26 07:13:55;;;;;;;4.13;0.77;;;;;;;;;;4991247;28;20050;-74
2023/03/26 07:16:21;;;;;;;7.35;0.82;;;;;;;;;;4991284;28;20528;-75
2023/03/26 07:18:46;;;;;;;5.15;0.85;;;;;;;;;;4991132;28;20548;-75
2023/03/26 07:21:12;;;;;;;2.78;0.80;;;;;;;;;;4991100;28;20077;-74
2023/03/26 07:23:38;;;;;;;7.00;1.02;;;;;;;;;;4990399;28;20038;-74
2023/03/26 07:26:25;;;;;;;5.03;1.00;;;;;;;;;;4991165;28;20026;-74
2023/03/26 07:29:03;;;;;;;8.80;0.95;;;;;;;;;;4991124;28;20034;-74
2023/03/26 07:32:01;;;;;;;6.15;0.93;;;;;;;;;;4991094;28;20026;-74
2023/03/26 07:34:39;;;;;;;5.78;0.88;;;;;;;;;;4988783;28;20030;-74
2023/03/26 07:37:31;;;;;;;6.57;1.15;;;;;;;;;;4990918;28;20026;-74
2023/03/26 07:40:24;;;;;;;5.53;1.05;;;;;;;;;;4989833;28;20382;-74
2023/03/26 07:43:14;;;;;;;6.18;1.00;;;;;;;;;;4990828;28;20503;-75
2023/03/26 07:45:42;;;;;;;6.63;1.20;;;;;;;;;;4990888;28;20023;-74
2023/03/26 07:48:15;;;;;;;5.70;1.15;;;;;;;;;;4990787;28;20030;-74
2023/03/26 07:50:42;;;;;;;5.30;1.10;;;;;;;;;;4991019;28;20033;-74
2023/03/26 07:53:07;;;;;;;5.38;1.10;;;;;;;;;;4989562;28;20141;-74
2023/03/26 07:56:14;;;;;;;5.30;1.05;;;;;;;;;;4990837;28;20537;-75
2023/03/26 07:58:39;;;;;;;5.68;1.10;;;;;;;;;;4968601;28;20434;-75
2023/03/26 08:01:14;;;;;;;4.30;0.90;;;;;;;;;;4968547;28;20133;-74
2023/03/26 08:03:58;;;;;;;3.75;0.82;;;;;;;;;;4980245;28;20114;-75
2023/03/26 08:06:41;;;;;;;7.28;1.20;;;;;;;;;;4989260;28;20041;-74
2023/03/26 08:09:19;;;;;;;8.05;1.30;;;;;;;;;;4990594;28;20062;-74
2023/03/26 08:12:05;;;;;;;4.50;1.20;;;;;;;;;;4990737;28;20027;-75
2023/03/26 08:14:53;;;;;;;5.05;1.10;;;;;;;;;;4990512;28;20050;-75
2023/03/26 08:17:36;;;;;;;5.90;1.05;;;;;;;;;;4990323;28;20022;-75
2023/03/26 08:20:17;;;;;;;9.40;1.02;;;;;;;;;;4990316;28;20033;-75
2023/03/26 08:22:49;;;;;;;7.60;1.33;;;;;;;;;;4990308;28;20042;-75
2023/03/26 08:25:49;;;;;;;6.43;1.52;;;;;;;;;;4989120;28;20038;-75
2023/03/26 08:28:32;;;;;;;5.72;1.25;;;;;;;;;;4990351;28;20073;-75
2023/03/26 08:31:01;;;;;;;7.00;1.10;;;;;;;;;;4990685;28;20042;-74
2023/03/26 08:33:27;;;;;;;7.07;1.30;;;;;;;;;;4990453;28;20030;-75
2023/03/26 08:35:53;;;;;;;9.38;1.33;;;;;;;;;;4993464;28;20077;-75
2023/03/26 08:38:19;;;;;;;6.05;1.25;;;;;;;;;;5008876;28;20366;-74
2023/03/26 08:41:09;;;;;;;8.73;1.48;;;;;;;;;;4994273;28;20131;-75
2023/03/26 08:44:12;;;;;;;7.43;1.30;;;;;;;;;;4994229;28;20026;-74
2023/03/26 08:47:02;;;;;;;8.43;1.35;;;;;;;;;;4994179;28;20026;-75
2023/03/26 08:49:55;;;;;;;12.30;1.60;;;;;;;;;;4993976;28;20089;-75
2023/03/26 08:52:36;;;;;;;11.05;1.33;;;;;;;;;;4993666;28;20049;-74
2023/03/26 08:55:20;;;;;;;7.13;1.20;;;;;;;;;;4992463;28;20038;-75
2023/03/26 08:58:16;;;;;;;9.80;1.48;;;;;;;;;;4993748;28;20030;-75
2023/03/26 09:01:03;;;;;;;8.35;1.20;;;;;;;;;;4993787;28;20030;-75
2023/03/26 09:03:52;;;;;;;5.78;1.20;;;;;;;;;;4992411;28;20031;-74
2023/03/26 09:06:56;;;;;;;5.82;1.27;;;;;;;;;;4993733;28;20101;-75
2023/03/26 09:10:00;;;;;;;8.45;1.63;;;;;;;;;;4992446;28;20046;-74
2023/03/26 09:13:06;;;;;;;8.65;1.27;;;;;;;;;;4993612;28;20022;-74
2023/03/26 09:15:52;;;;;;;8.60;1.50;;;;;;;;;;4993401;28;20034;-74
2023/03/26 09:18:33;;;;;;;8.07;1.23;;;;;;;;;;4992073;28;20560;-74
2023/03/26 09:21:10;;;;;;;8.13;1.77;;;;;;;;;;4992193;28;20117;-74
2023/03/26 09:23:42;;;;;;;10.30;1.60;;;;;;;;;;4993546;28;20077;-74
2023/03/26 09:26:32;;;;;;;5.78;1.23;;;;;;;;;;4993460;28;20485;-74
2023/03/26 09:29:16;;;;;;;11.47;1.80;;;;;;;;;;4993072;28;20026;-74
2023/03/26 09:32:17;;;;;;;9.45;1.63;;;;;;;;;;4993081;28;20054;-74
2023/03/26 09:34:48;;;;;;;8.57;1.60;;;;;;;;;;4993229;28;20516;-75
2023/03/26 09:37:27;;;;;;;7.38;1.50;;;;;;;;;;4991549;28;20085;-74
2023/03/26 09:40:08;;;;;;;6.97;1.23;;;;;;;;;;4993242;28;20504;-75
2023/03/26 09:43:01;;;;;;;5.85;1.95;;;;;;;;;;4991654;28;20046;-74
2023/03/26 09:45:59;;;;;;;8.15;1.90;;;;;;;;;;4992680;28;20034;-74
2023/03/26 09:48:44;;;;;;;7.65;1.48;;;;;;;;;;4992763;28;20026;-75
2023/03/26 09:51:47;;;;;;;9.75;1.77;;;;;;;;;;4991236;28;20053;-75
2023/03/26 09:54:43;;;;;;;5.30;1.50;;;;;;;;;;4991332;28;20129;-74
2023/03/26 09:57:20;;;;;;;8.73;1.60;;;;;;;;;;4985186;28;20035;-75
2023/03/26 09:59:56;;;;;;;12.65;2.05;;;;;;;;;;4991551;28;20536;-75
2023/03/26 10:02:41;;;;;;;7.57;1.88;;;;;;;;;;4992699;28;20042;-75
2023/03/26 10:05:25;;;;;;;10.07;1.85;;;;;;;;;;4992567;28;20035;-75
2023/03/26 10:08:22;;;;;;;8.55;1.70;;;;;;;;;;4992174;28;20018;-74
2023/03/26 10:11:12;;;;;;;10.00;1.77;;;;;;;;;;4992563;28;20421;-74
2023/03/26 10:13:59;;;;;;;10.57;1.83;;;;;;;;;;4992265;28;20085;-74
2023/03/26 10:16:30;;;;;;;10.10;1.90;;;;;;;;;;4992314;28;20022;-74
2023/03/26 10:18:58;;;;;;;9.10;1.77;;;;;;;;;;5007200;28;20058;-74
2023/03/26 10:21:29;;;;;;;12.43;1.75;;;;;;;;;;4990742;28;20497;-75
2023/03/26 10:24:03;;;;;;;6.60;1.55;;;;;;;;;;4992245;28;20165;-75
2023/03/26 10:26:43;;;;;;;12.57;1.70;;;;;;;;;;4990936;28;20026;-75
2023/03/26 10:29:36;;;;;;;8.73;1.73;;;;;;;;;;4991896;28;20026;-74
2023/03/26 10:32:32;;;;;;;10.98;1.88;;;;;;;;;;4992252;28;20030;-74
2023/03/26 10:35:30;;;;;;;8.27;1.60;;;;;;;;;;4992260;28;20098;-74
2023/03/26 10:38:19;;;;;;;10.15;1.80;;;;;;;;;;4991983;28;20030;-74
2023/03/26 10:41:36;;;;;;;13.70;2.10;;;;;;;;;;4990481;28;20560;-74
2023/03/26 10:44:23;;;;;;;9.98;1.77;;;;;;;;;;4969693;28;20732;-73
2023/03/26 10:47:21;;;;;;;10.18;2.10;;;;;;;;;;4990462;28;20053;-74
2023/03/26 10:49:51;;;;;;;12.40;2.30;;;;;;;;;;4991798;28;20030;-74
2023/03/26 10:52:33;;;;;;;10.82;2.03;;;;;;;;;;4991725;28;20462;-74
2023/03/26 10:55:10;;;;;;;14.00;1.88;;;;;;;;;;5006783;28;20026;-74
2023/03/26 10:57:51;;;;;;;10.35;2.00;;;;;;;;;;5006049;28;20053;-74
2023/03/26 11:00:25;;;;;;;11.82;1.70;;;;;;;;;;4991594;28;20050;-74
2023/03/26 11:03:18;;;;;;;12.68;2.13;;;;;;;;;;4991613;28;20041;-75
2023/03/26 11:06:02;;;;;;;13.52;1.90;;;;;;;;;;4990183;28;20109;-74
2023/03/26 11:08:39;;;;;;;14.68;1.95;;;;;;;;;;4991478;28;20088;-74
2023/03/26 11:11:14;;;;;;;11.85;2.13;;;;;;;;;;4991573;28;20030;-74
2023/03/26 11:14:01;;;;;;;16.98;2.30;;;;;;;;;;4991357;28;20129;-74
2023/03/26 11:16:42;;;;;;;13.02;1.80;;;;;;;;;;4991337;28;20088;-75
2023/03/26 11:19:18;;;;;;;13.38;1.95;;;;;;;;;;4990939;28;20023;-74
2023/03/26 11:22:25;;;;;;;12.80;2.05;;;;;;;;;;4991090;28;20436;-74
2023/03/26 11:25:05;;;;;;;15.77;2.22;;;;;;;;;;4989760;28;20066;-74
2023/03/26 11:27:30;;;;;;;15.48;2.30;;;;;;;;;;4991444;28;20034;-74
2023/03/26 11:30:08;;;;;;;14.60;2.10;;;;;;;;;;4991184;28;20102;-74
2023/03/26 11:32:44;;;;;;;13.18;1.92;;;;;;;;;;4991343;28;20034;-74
2023/03/26 11:35:26;;;;;;;13.45;2.00;;;;;;;;;;4990958;28;20510;-74
2023/03/26 11:37:57;;;;;;;14.02;2.10;;;;;;;;;;4991005;28;20033;-74
2023/03/26 11:40:37;;;;;;;14.43;1.98;;;;;;;;;;4990860;28;20389;-75
2023/03/26 11:43:11;;;;;;;14.80;2.53;;;;;;;;;;4990935;28;20482;-75
2023/03/26 11:45:41;;;;;;;13.82;2.25;;;;;;;;;;5005888;28;20022;-74
2023/03/26 11:48:16;;;;;;;11.70;2.08;;;;;;;;;;4990897;28;20024;-75
2023/03/26 11:50:46;;;;;;;16.48;2.20;;;;;;;;;;4990861;28;20030;-75
2023/03/26 11:53:15;;;;;;;12.52;2.10;;;;;;;;;;4990622;28;20037;-75
2023/03/26 11:55:49;;;;;;;13.98;2.00;;;;;;;;;;4989495;28;20026;-75
2023/03/26 11:58:30;;;;;;;15.18;2.60;;;;;;;;;;4990579;28;20022;-74
2023/03/26 12:00:56;;;;;;;12.77;2.33;;;;;;;;;;4990885;28;20084;-74
2023/03/26 12:03:21;;;;;;;15.73;2.30;;;;;;;;;;4990493;28;20104;-75
2023/03/26 12:05:52;;;;;;;12.95;2.10;;;;;;;;;;4990570;28;20085;-75
2023/03/26 12:08:29;;;;;;;12.30;2.00;;;;;;;;;;4990398;28;20037;-74
2023/03/26 12:11:02;;;;;;;15.40;2.00;;;;;;;;;;4993828;28;20038;-75
2023/03/26 12:13:38;;;;;;;11.70;1.92;;;;;;;;;;4994564;28;20089;-75
2023/03/26 12:16:09;;;;;;;11.70;1.90;;;;;;;;;;4993259;28;20030;-74
2023/03/26 12:18:38;;;;;;;13.23;2.25;;;;;;;;;;4994398;28;20022;-74
2023/03/26 12:21:17;;;;;;;8.52;1.80;;;;;;;;;;4994389;28;20026;-74
2023/03/26 12:23:56;;;;;;;10.25;1.83;;;;;;;;;;4993270;28;20022;-74
2023/03/26 12:26:38;;;;;;;11.35;2.15;;;;;;;;;;4994439;28;20072;-73
2023/03/26 12:29:16;;;;;;;12.20;1.90;;;;;;;;;;4994191;28;20037;-74
2023/03/26 12:31:48;;;;;;;12.93;1.90;;;;;;;;;;4994517;28;20109;-74
2023/03/26 12:34:17;;;;;;;12.07;2.15;;;;;;;;;;4994273;28;20033;-74
2023/03/26 12:36:51;;;;;;;9.05;1.75;;;;;;;;;;4994214;28;20501;-74
2023/03/26 12:39:38;;;;;;;12.18;2.20;;;;;;;;;;4994178;28;20033;-74
2023/03/26 12:42:06;;;;;;;8.50;1.70;;;;;;;;;;4994159;28;20030;-74
2023/03/26 12:44:43;;;;;;;10.93;1.90;;;;;;;;;;4994081;28;20072;-74
2023/03/26 12:47:32;;;;;;;8.73;1.85;;;;;;;;;;4994032;28;20034;-74
2023/03/26 12:49:58;;;;;;;8.45;1.48;;;;;;;;;;4993721;28;20026;-74
2023/03/26 12:52:46;;;;;;;11.20;1.50;;;;;;;;;;4993978;28;20026;-74
2023/03/26 12:55:39;;;;;;;8.35;1.42;;;;;;;;;;4993987;28;20037;-74
2023/03/26 12:58:23;;;;;;;9.18;1.48;;;;;;;;;;4993826;28;20511;-74
2023/03/26 13:01:18;;;;;;;7.38;1.55;;;;;;;;;;4992365;28;20030;-74
2023/03/26 13:04:27;;;;;;;8.18;1.38;;;;;;;;;;4974090;28;20054;-74
2023/03/26 13:07:18;;;;;;;11.48;1.45;;;;;;;;;;4993687;28;20077;-74
2023/03/26 13:10:22;;;;;;;8.45;1.60;;;;;;;;;;4993519;28;20026;-74
2023/03/26 13:13:09;;;;;;;10.23;1.55;;;;;;;;;;4985630;28;20054;-74
2023/03/26 13:15:43;;;;;;;11.82;1.45;;;;;;;;;;4993605;28;20026;-74
2023/03/26 13:18:42;;;;;;;8.38;1.70;;;;;;;;;;4992400;28;20027;-74
2023/03/26 13:21:46;;;;;;;11.75;1.98;;;;;;;;;;4992212;28;20033;-74
2023/03/26 13:24:39;;;;;;;15.43;1.83;;;;;;;;;;4971378;28;20035;-74
2023/03/26 13:27:28;;;;;;;8.95;1.60;;;;;;;;;;4954971;28;20118;-74
2023/03/26 13:30:18;;;;;;;10.90;1.50;;;;;;;;;;4988918;28;20519;-74
2023/03/26 13:33:00;;;;;;;5.93;1.13;;;;;;;;;;4993268;28;20034;-74
2023/03/26 13:35:36;;;;;;;7.57;1.10;;;;;;;;;;4991856;28;20027;-74
2023/03/26 13:38:19;;;;;;;5.65;1.20;;;;;;;;;;4992851;28;20022;-74
2023/03/26 13:41:05;;;;;;;4.75;1.27;;;;;;;;;;5007974;28;20026;-74
2023/03/26 13:43:39;;;;;;;6.03;1.20;;;;;;;;;;4993055;28;20033;-74
2023/03/26 13:46:11;;;;;;;7.57;1.40;;;;;;;;;;4993035;28;20030;-74
2023/03/26 13:48:52;;;;;;;8.32;1.30;;;;;;;;;;4993037;28;20054;-74
2023/03/26 13:51:24;;;;;;;8.05;1.42;;;;;;;;;;4992879;28;20788;-74
2023/03/26 13:53:53;;;;;;;7.03;1.38;;;;;;;;;;4993009;28;20508;-74
2023/03/26 13:56:28;;;;;;;6.85;1.30;;;;;;;;;;4992929;28;20030;-72
2023/03/26 13:59:02;;;;;;;10.65;1.92;;;;;;;;;;4992617;28;20023;-74
2023/03/26 14:01:33;;;;;;;8.52;1.40;;;;;;;;;;4992655;28;20035;-74
2023/03/26 14:04:11;;;;;;;5.88;1.13;;;;;;;;;;4992914;28;20034;-74
2023/03/26 14:06:40;;;;;;;12.27;1.38;;;;;;;;;;4992623;28;20601;-73
2023/03/26 14:09:30;;;;;;;8.48;1.00;;;;;;;;;;4992687;28;20038;-74
2023/03/26 14:11:56;;;;;;;8.38;1.60;;;;;;;;;;4992537;28;20351;-74
2023/03/26 14:14:36;;;;;;;7.22;1.33;;;;;;;;;;4992349;28;20053;-74
2023/03/26 14:17:22;;;;;;;9.88;1.30;;;;;;;;;;4992641;28;20026;-74
2023/03/26 14:20:19;;;;;;;7.40;1.50;;;;;;;;;;4991829;28;20076;-74
2023/03/26 14:23:00;;;;;;;11.57;1.60;;;;;;;;;;4990827;28;20126;-73
2023/03/26 14:25:34;;;;;;;;;;;;;;;;;;4992828;28;20109;-74
2023/03/26 14:28:12;;;;;;;6.22;1.00;;;;;;;;;;5007195;28;19914;-73
2023/03/26 14:31:06;;;;;;;6.15;1.38;;;;;;;;;;4991945;28;20030;-74
2023/03/26 14:33:49;;;;;;;4.78;1.15;;;;;;;;;;4991182;28;20026;-74
2023/03/26 14:36:57;;;;;;;8.30;1.50;;;;;;;;;;4992000;28;20389;-74
2023/03/26 14:39:29;;;;;;;8.88;1.40;;;;;;;;;;4990602;28;20084;-74
2023/03/26 14:42:06;;;;;;;8.80;1.25;;;;;;;;;;4992065;28;20058;-74
2023/03/26 14:45:05;;;;;;;8.27;1.27;;;;;;;;;;4991923;28;20034;-74
2023/03/26 14:47:43;;;;;;;9.77;1.40;;;;;;;;;;4990575;28;20503;-74
2023/03/26 14:50:12;;;;;;;8.75;1.40;;;;;;;;;;4991686;28;20023;-74
2023/03/26 14:52:48;;;;;;;14.15;1.88;;;;;;;;;;4990376;28;20600;-74
2023/03/26 14:55:23;;;;;;;11.57;1.63;;;;;;;;;;4991751;28;20019;-73
2023/03/26 14:58:26;;;;;;;11.35;1.55;;;;;;;;;;4991694;28;20401;-73
2023/03/26 15:01:10;;;;;;;12.52;1.35;;;;;;;;;;4991546;28;20030;-74
2023/03/26 15:03:47;;;;;;;13.45;1.55;;;;;;;;;;4991454;28;20030;-74
2023/03/26 15:06:47;;;;;;;11.45;1.73;;;;;;;;;;4991177;28;20026;-74
2023/03/26 15:09:38;;;;;;;9.68;1.70;;;;;;;;;;4991418;28;20027;-74
2023/03/26 15:12:40;;;;;;;11.00;1.63;;;;;;;;;;4991568;28;20072;-74
2023/03/26 15:15:19;;;;;;;12.13;1.52;;;;;;;;;;4991346;28;20104;-74
2023/03/26 15:18:22;;;;;;;8.35;1.55;;;;;;;;;;5006452;28;20030;-74
2023/03/26 15:21:09;;;;;;;6.30;1.38;;;;;;;;;;4990992;28;20160;-73
2023/03/26 15:23:53;;;;;;;5.60;1.20;;;;;;;;;;4991053;28;20105;-74
2023/03/26 15:26:46;;;;;;;7.05;1.10;;;;;;;;;;4991190;28;20026;-74
2023/03/26 15:29:11;;;;;;;5.43;1.25;;;;;;;;;;4991150;28;20493;-74